sensor_id;sensor_type;location;lat;lon;timestamp;P1;durP1;ratioP1;P2;durP2;ratioP2
55212;SDS011;41083;52.932;6.674;2022-08-07T00:01:25;3.70;;;0.98;;
55212;SDS011;41083;52.932;6.674;2022-08-07T00:03:50;2.78;;;1.10;;
55212;SDS011;41083;52.932;6.674;2022-08-07T00:06:16;2.88;;;1.25;;
55212;SDS011;41083;52.932;6.674;2022-08-07T00:08:42;3.33;;;1.33;;
55212;SDS011;41083;52.932;6.674;2022-08-07T00:11:07;2.92;;;1.30;;
55212;SDS011;41083;52.932;6.674;2022-08-07T00:13:33;1.92;;;0.90;;
55212;SDS011;41083;52.932;6.674;2022-08-07T00:16:02;2.08;;;1.00;;
55212;SDS011;41083;52.932;6.674;2022-08-07T00:18:30;2.88;;;0.88;;
55212;SDS011;41083;52.932;6.674;2022-08-07T00:20:57;4.05;;;1.27;;
55212;SDS011;41083;52.932;6.674;2022-08-07T00:23:25;3.22;;;1.33;;
55212;SDS011;41083;52.932;6.674;2022-08-07T00:25:50;2.22;;;0.85;;
55212;SDS011;41083;52.932;6.674;2022-08-07T00:28:17;2.70;;;1.25;;
55212;SDS011;41083;52.932;6.674;2022-08-07T00:30:43;2.38;;;1.20;;
55212;SDS011;41083;52.932;6.674;2022-08-07T00:33:09;3.40;;;1.40;;
55212;SDS011;41083;52.932;6.674;2022-08-07T00:35:34;2.03;;;1.10;;
55212;SDS011;41083;52.932;6.674;2022-08-07T00:38:00;2.10;;;1.00;;
55212;SDS011;41083;52.932;6.674;2022-08-07T00:40:26;3.40;;;0.90;;
55212;SDS011;41083;52.932;6.674;2022-08-07T00:42:52;3.13;;;1.40;;
55212;SDS011;41083;52.932;6.674;2022-08-07T00:45:18;2.63;;;1.50;;
55212;SDS011;41083;52.932;6.674;2022-08-07T00:47:45;1.73;;;1.10;;
55212;SDS011;41083;52.932;6.674;2022-08-07T00:50:11;2.50;;;1.00;;
55212;SDS011;41083;52.932;6.674;2022-08-07T00:52:37;2.75;;;1.08;;
55212;SDS011;41083;52.932;6.674;2022-08-07T00:55:03;1.92;;;1.10;;
55212;SDS011;41083;52.932;6.674;2022-08-07T00:57:29;2.05;;;0.98;;
55212;SDS011;41083;52.932;6.674;2022-08-07T00:59:55;3.00;;;1.25;;
55212;SDS011;41083;52.932;6.674;2022-08-07T01:02:21;3.45;;;1.33;;
55212;SDS011;41083;52.932;6.674;2022-08-07T01:04:48;2.28;;;1.33;;
55212;SDS011;41083;52.932;6.674;2022-08-07T01:07:13;2.13;;;1.00;;
55212;SDS011;41083;52.932;6.674;2022-08-07T01:09:40;2.33;;;1.23;;
55212;SDS011;41083;52.932;6.674;2022-08-07T01:12:06;2.17;;;1.10;;
55212;SDS011;41083;52.932;6.674;2022-08-07T01:14:32;1.23;;;0.70;;
55212;SDS011;41083;52.932;6.674;2022-08-07T01:16:58;3.83;;;1.23;;
55212;SDS011;41083;52.932;6.674;2022-08-07T01:19:24;2.35;;;1.00;;
55212;SDS011;41083;52.932;6.674;2022-08-07T01:21:51;2.33;;;0.93;;
55212;SDS011;41083;52.932;6.674;2022-08-07T01:24:18;1.80;;;0.80;;
55212;SDS011;41083;52.932;6.674;2022-08-07T01:26:45;2.00;;;0.85;;
55212;SDS011;41083;52.932;6.674;2022-08-07T01:29:11;2.83;;;1.02;;
55212;SDS011;41083;52.932;6.674;2022-08-07T01:31:37;1.25;;;0.60;;
55212;SDS011;41083;52.932;6.674;2022-08-07T01:34:03;2.20;;;0.85;;
55212;SDS011;41083;52.932;6.674;2022-08-07T01:36:32;1.83;;;0.80;;
55212;SDS011;41083;52.932;6.674;2022-08-07T01:38:58;1.92;;;0.98;;
55212;SDS011;41083;52.932;6.674;2022-08-07T01:41:24;2.85;;;0.80;;
55212;SDS011;41083;52.932;6.674;2022-08-07T01:43:50;1.05;;;0.43;;
55212;SDS011;41083;52.932;6.674;2022-08-07T01:46:16;2.70;;;0.90;;
55212;SDS011;41083;52.932;6.674;2022-08-07T01:48:45;2.65;;;1.20;;
55212;SDS011;41083;52.932;6.674;2022-08-07T01:51:12;2.10;;;0.90;;
55212;SDS011;41083;52.932;6.674;2022-08-07T01:53:43;2.78;;;1.08;;
55212;SDS011;41083;52.932;6.674;2022-08-07T01:56:13;1.75;;;0.68;;
55212;SDS011;41083;52.932;6.674;2022-08-07T01:58:47;2.27;;;1.03;;
55212;SDS011;41083;52.932;6.674;2022-08-07T02:01:23;2.45;;;1.08;;
55212;SDS011;41083;52.932;6.674;2022-08-07T02:03:54;1.92;;;0.98;;
55212;SDS011;41083;52.932;6.674;2022-08-07T02:06:26;1.85;;;0.73;;
55212;SDS011;41083;52.932;6.674;2022-08-07T02:08:54;2.65;;;1.05;;
55212;SDS011;41083;52.932;6.674;2022-08-07T02:11:21;1.98;;;0.90;;
55212;SDS011;41083;52.932;6.674;2022-08-07T02:13:46;3.75;;;1.17;;
55212;SDS011;41083;52.932;6.674;2022-08-07T02:16:13;1.52;;;0.77;;
55212;SDS011;41083;52.932;6.674;2022-08-07T02:18:42;2.10;;;1.02;;
55212;SDS011;41083;52.932;6.674;2022-08-07T02:21:08;2.45;;;1.05;;
55212;SDS011;41083;52.932;6.674;2022-08-07T02:23:35;2.17;;;1.05;;
55212;SDS011;41083;52.932;6.674;2022-08-07T02:26:03;1.52;;;0.82;;
55212;SDS011;41083;52.932;6.674;2022-08-07T02:28:30;1.95;;;1.08;;
55212;SDS011;41083;52.932;6.674;2022-08-07T02:30:58;2.33;;;1.05;;
55212;SDS011;41083;52.932;6.674;2022-08-07T02:33:26;1.73;;;1.13;;
55212;SDS011;41083;52.932;6.674;2022-08-07T02:35:53;3.47;;;1.10;;
55212;SDS011;41083;52.932;6.674;2022-08-07T02:38:21;2.22;;;0.70;;
55212;SDS011;41083;52.932;6.674;2022-08-07T02:40:50;1.52;;;0.75;;
55212;SDS011;41083;52.932;6.674;2022-08-07T02:43:17;1.98;;;0.93;;
55212;SDS011;41083;52.932;6.674;2022-08-07T02:45:43;1.85;;;1.00;;
55212;SDS011;41083;52.932;6.674;2022-08-07T02:48:11;2.00;;;0.82;;
55212;SDS011;41083;52.932;6.674;2022-08-07T02:50:38;3.30;;;1.13;;
55212;SDS011;41083;52.932;6.674;2022-08-07T02:53:17;2.58;;;0.80;;
55212;SDS011;41083;52.932;6.674;2022-08-07T02:55:48;3.33;;;1.30;;
55212;SDS011;41083;52.932;6.674;2022-08-07T02:58:20;1.40;;;0.80;;
55212;SDS011;41083;52.932;6.674;2022-08-07T03:00:48;6.95;;;1.20;;
55212;SDS011;41083;52.932;6.674;2022-08-07T03:03:16;2.53;;;0.93;;
55212;SDS011;41083;52.932;6.674;2022-08-07T03:05:42;2.33;;;0.90;;
55212;SDS011;41083;52.932;6.674;2022-08-07T03:08:09;1.92;;;0.77;;
55212;SDS011;41083;52.932;6.674;2022-08-07T03:10:37;2.65;;;0.98;;
55212;SDS011;41083;52.932;6.674;2022-08-07T03:13:03;3.03;;;0.95;;
55212;SDS011;41083;52.932;6.674;2022-08-07T03:15:30;1.92;;;0.95;;
55212;SDS011;41083;52.932;6.674;2022-08-07T03:17:56;3.03;;;1.08;;
55212;SDS011;41083;52.932;6.674;2022-08-07T03:20:22;1.80;;;0.85;;
55212;SDS011;41083;52.932;6.674;2022-08-07T03:22:49;1.45;;;0.60;;
55212;SDS011;41083;52.932;6.674;2022-08-07T03:25:15;3.13;;;1.20;;
55212;SDS011;41083;52.932;6.674;2022-08-07T03:27:42;2.42;;;0.90;;
55212;SDS011;41083;52.932;6.674;2022-08-07T03:30:10;1.13;;;0.60;;
55212;SDS011;41083;52.932;6.674;2022-08-07T03:32:37;2.38;;;1.20;;
55212;SDS011;41083;52.932;6.674;2022-08-07T03:35:06;1.73;;;0.85;;
55212;SDS011;41083;52.932;6.674;2022-08-07T03:37:37;1.20;;;0.70;;
55212;SDS011;41083;52.932;6.674;2022-08-07T03:40:05;2.22;;;0.98;;
55212;SDS011;41083;52.932;6.674;2022-08-07T03:42:33;2.22;;;1.02;;
55212;SDS011;41083;52.932;6.674;2022-08-07T03:45:00;1.48;;;0.70;;
55212;SDS011;41083;52.932;6.674;2022-08-07T03:47:27;2.10;;;0.80;;
55212;SDS011;41083;52.932;6.674;2022-08-07T03:49:54;1.77;;;0.95;;
55212;SDS011;41083;52.932;6.674;2022-08-07T03:52:21;1.77;;;0.85;;
55212;SDS011;41083;52.932;6.674;2022-08-07T03:54:50;6.00;;;1.30;;
55212;SDS011;41083;52.932;6.674;2022-08-07T03:57:16;8.77;;;1.40;;
55212;SDS011;41083;52.932;6.674;2022-08-07T03:59:42;3.75;;;1.45;;
55212;SDS011;41083;52.932;6.674;2022-08-07T04:02:08;2.67;;;1.00;;
55212;SDS011;41083;52.932;6.674;2022-08-07T04:04:34;9.02;;;1.13;;
55212;SDS011;41083;52.932;6.674;2022-08-07T04:07:00;1.27;;;0.80;;
55212;SDS011;41083;52.932;6.674;2022-08-07T04:09:26;3.00;;;1.10;;
55212;SDS011;41083;52.932;6.674;2022-08-07T04:11:53;2.92;;;1.30;;
55212;SDS011;41083;52.932;6.674;2022-08-07T04:14:19;1.55;;;0.82;;
55212;SDS011;41083;52.932;6.674;2022-08-07T04:16:46;4.75;;;1.30;;
55212;SDS011;41083;52.932;6.674;2022-08-07T04:19:13;2.72;;;1.10;;
55212;SDS011;41083;52.932;6.674;2022-08-07T04:21:39;2.67;;;1.25;;
55212;SDS011;41083;52.932;6.674;2022-08-07T04:24:05;2.47;;;0.80;;
55212;SDS011;41083;52.932;6.674;2022-08-07T04:26:37;3.45;;;1.50;;
55212;SDS011;41083;52.932;6.674;2022-08-07T04:29:04;2.85;;;0.90;;
55212;SDS011;41083;52.932;6.674;2022-08-07T04:31:32;2.95;;;1.35;;
55212;SDS011;41083;52.932;6.674;2022-08-07T04:33:58;2.30;;;1.00;;
55212;SDS011;41083;52.932;6.674;2022-08-07T04:36:24;2.03;;;1.05;;
55212;SDS011;41083;52.932;6.674;2022-08-07T04:38:50;2.15;;;0.82;;
55212;SDS011;41083;52.932;6.674;2022-08-07T04:41:15;3.40;;;1.50;;
55212;SDS011;41083;52.932;6.674;2022-08-07T04:43:41;3.15;;;1.63;;
55212;SDS011;41083;52.932;6.674;2022-08-07T04:46:21;1.98;;;0.90;;
55212;SDS011;41083;52.932;6.674;2022-08-07T05:00:26;2.33;;;1.05;;
55212;SDS011;41083;52.932;6.674;2022-08-07T05:06:01;1.77;;;1.10;;
55212;SDS011;41083;52.932;6.674;2022-08-07T05:08:35;5.85;;;2.00;;
55212;SDS011;41083;52.932;6.674;2022-08-07T05:11:08;2.70;;;1.25;;
55212;SDS011;41083;52.932;6.674;2022-08-07T05:13:52;2.38;;;1.10;;
55212;SDS011;41083;52.932;6.674;2022-08-07T05:16:26;2.97;;;1.42;;
55212;SDS011;41083;52.932;6.674;2022-08-07T05:18:58;3.30;;;1.73;;
55212;SDS011;41083;52.932;6.674;2022-08-07T05:21:27;2.75;;;1.10;;
55212;SDS011;41083;52.932;6.674;2022-08-07T05:23:59;2.72;;;1.27;;
55212;SDS011;41083;52.932;6.674;2022-08-07T05:26:28;3.63;;;1.48;;
55212;SDS011;41083;52.932;6.674;2022-08-07T05:28:58;3.08;;;1.38;;
55212;SDS011;41083;52.932;6.674;2022-08-07T05:31:27;3.45;;;1.63;;
55212;SDS011;41083;52.932;6.674;2022-08-07T05:33:57;1.67;;;1.10;;
55212;SDS011;41083;52.932;6.674;2022-08-07T05:36:24;3.05;;;1.70;;
55212;SDS011;41083;52.932;6.674;2022-08-07T05:38:52;3.13;;;1.33;;
55212;SDS011;41083;52.932;6.674;2022-08-07T05:41:19;3.85;;;1.75;;
55212;SDS011;41083;52.932;6.674;2022-08-07T05:43:48;3.00;;;1.23;;
55212;SDS011;41083;52.932;6.674;2022-08-07T05:46:15;2.95;;;1.45;;
55212;SDS011;41083;52.932;6.674;2022-08-07T05:48:43;3.22;;;1.58;;
55212;SDS011;41083;52.932;6.674;2022-08-07T05:51:09;4.05;;;1.55;;
55212;SDS011;41083;52.932;6.674;2022-08-07T05:53:36;3.47;;;1.63;;
55212;SDS011;41083;52.932;6.674;2022-08-07T05:56:02;3.92;;;1.58;;
55212;SDS011;41083;52.932;6.674;2022-08-07T05:58:30;3.53;;;1.67;;
55212;SDS011;41083;52.932;6.674;2022-08-07T06:00:57;3.63;;;1.95;;
55212;SDS011;41083;52.932;6.674;2022-08-07T06:03:24;3.08;;;1.33;;
55212;SDS011;41083;52.932;6.674;2022-08-07T06:05:52;3.53;;;1.45;;
55212;SDS011;41083;52.932;6.674;2022-08-07T06:08:18;3.65;;;1.83;;
55212;SDS011;41083;52.932;6.674;2022-08-07T06:10:45;3.35;;;1.63;;
55212;SDS011;41083;52.932;6.674;2022-08-07T06:13:10;6.30;;;2.70;;
55212;SDS011;41083;52.932;6.674;2022-08-07T06:15:36;2.88;;;1.70;;
55212;SDS011;41083;52.932;6.674;2022-08-07T06:18:05;4.60;;;1.95;;
55212;SDS011;41083;52.932;6.674;2022-08-07T06:20:33;3.95;;;1.98;;
55212;SDS011;41083;52.932;6.674;2022-08-07T06:23:01;4.25;;;2.30;;
55212;SDS011;41083;52.932;6.674;2022-08-07T06:25:28;4.50;;;1.90;;
55212;SDS011;41083;52.932;6.674;2022-08-07T06:28:04;5.13;;;2.25;;
55212;SDS011;41083;52.932;6.674;2022-08-07T06:30:31;6.32;;;2.10;;
55212;SDS011;41083;52.932;6.674;2022-08-07T06:32:57;6.10;;;2.63;;
55212;SDS011;41083;52.932;6.674;2022-08-07T06:35:23;5.13;;;2.70;;
55212;SDS011;41083;52.932;6.674;2022-08-07T06:37:48;8.15;;;2.67;;
55212;SDS011;41083;52.932;6.674;2022-08-07T06:40:14;6.97;;;3.28;;
55212;SDS011;41083;52.932;6.674;2022-08-07T06:42:40;7.85;;;2.97;;
55212;SDS011;41083;52.932;6.674;2022-08-07T06:45:12;5.78;;;2.45;;
55212;SDS011;41083;52.932;6.674;2022-08-07T06:47:39;5.95;;;2.67;;
55212;SDS011;41083;52.932;6.674;2022-08-07T06:50:05;3.55;;;2.25;;
55212;SDS011;41083;52.932;6.674;2022-08-07T06:52:35;5.15;;;2.22;;
55212;SDS011;41083;52.932;6.674;2022-08-07T06:55:05;4.82;;;2.17;;
55212;SDS011;41083;52.932;6.674;2022-08-07T06:57:38;4.80;;;2.88;;
55212;SDS011;41083;52.932;6.674;2022-08-07T07:00:04;5.88;;;2.70;;
55212;SDS011;41083;52.932;6.674;2022-08-07T07:02:31;4.78;;;2.35;;
55212;SDS011;41083;52.932;6.674;2022-08-07T07:04:58;4.60;;;1.95;;
55212;SDS011;41083;52.932;6.674;2022-08-07T07:07:24;4.25;;;2.05;;
55212;SDS011;41083;52.932;6.674;2022-08-07T07:09:50;4.82;;;2.42;;
55212;SDS011;41083;52.932;6.674;2022-08-07T07:12:18;3.83;;;2.10;;
55212;SDS011;41083;52.932;6.674;2022-08-07T07:20:48;3.72;;;1.83;;
55212;SDS011;41083;52.932;6.674;2022-08-07T07:23:20;3.70;;;1.67;;
55212;SDS011;41083;52.932;6.674;2022-08-07T07:25:47;3.92;;;2.28;;
55212;SDS011;41083;52.932;6.674;2022-08-07T07:28:23;5.05;;;1.42;;
55212;SDS011;41083;52.932;6.674;2022-08-07T07:31:03;3.45;;;1.60;;
55212;SDS011;41083;52.932;6.674;2022-08-07T07:33:34;2.70;;;1.17;;
55212;SDS011;41083;52.932;6.674;2022-08-07T07:36:02;2.10;;;1.20;;
55212;SDS011;41083;52.932;6.674;2022-08-07T07:38:28;3.70;;;1.58;;
55212;SDS011;41083;52.932;6.674;2022-08-07T07:40:59;2.00;;;1.00;;
55212;SDS011;41083;52.932;6.674;2022-08-07T07:43:28;1.75;;;1.00;;
55212;SDS011;41083;52.932;6.674;2022-08-07T07:45:56;2.13;;;1.02;;
55212;SDS011;41083;52.932;6.674;2022-08-07T07:48:22;1.90;;;0.90;;
55212;SDS011;41083;52.932;6.674;2022-08-07T07:50:50;1.75;;;0.85;;
55212;SDS011;41083;52.932;6.674;2022-08-07T07:53:18;1.52;;;0.80;;
55212;SDS011;41083;52.932;6.674;2022-08-07T07:55:46;2.20;;;1.02;;
55212;SDS011;41083;52.932;6.674;2022-08-07T07:58:12;2.40;;;1.23;;
55212;SDS011;41083;52.932;6.674;2022-08-07T08:00:41;2.10;;;0.82;;
55212;SDS011;41083;52.932;6.674;2022-08-07T08:03:09;2.00;;;1.20;;
55212;SDS011;41083;52.932;6.674;2022-08-07T08:05:40;2.30;;;1.08;;
55212;SDS011;41083;52.932;6.674;2022-08-07T08:08:07;2.55;;;1.00;;
55212;SDS011;41083;52.932;6.674;2022-08-07T08:10:35;2.20;;;0.90;;
55212;SDS011;41083;52.932;6.674;2022-08-07T08:13:02;2.15;;;1.10;;
55212;SDS011;41083;52.932;6.674;2022-08-07T08:15:30;1.92;;;1.05;;
55212;SDS011;41083;52.932;6.674;2022-08-07T08:17:59;2.90;;;0.70;;
55212;SDS011;41083;52.932;6.674;2022-08-07T08:20:27;2.05;;;1.05;;
55212;SDS011;41083;52.932;6.674;2022-08-07T08:22:56;2.83;;;1.20;;
55212;SDS011;41083;52.932;6.674;2022-08-07T08:25:46;1.83;;;1.02;;
55212;SDS011;41083;52.932;6.674;2022-08-07T08:28:34;1.10;;;0.70;;
55212;SDS011;41083;52.932;6.674;2022-08-07T08:31:03;0.75;;;0.50;;
55212;SDS011;41083;52.932;6.674;2022-08-07T08:33:32;1.80;;;0.85;;
55212;SDS011;41083;52.932;6.674;2022-08-07T08:35:59;3.50;;;0.55;;
55212;SDS011;41083;52.932;6.674;2022-08-07T08:38:27;1.38;;;0.65;;
55212;SDS011;41083;52.932;6.674;2022-08-07T08:41:06;2.20;;;0.68;;
55212;SDS011;41083;52.932;6.674;2022-08-07T08:43:33;1.45;;;0.80;;
55212;SDS011;41083;52.932;6.674;2022-08-07T08:46:15;1.45;;;0.88;;
55212;SDS011;41083;52.932;6.674;2022-08-07T08:48:56;1.67;;;0.75;;
55212;SDS011;41083;52.932;6.674;2022-08-07T08:54:28;1.55;;;0.80;;
55212;SDS011;41083;52.932;6.674;2022-08-07T08:57:00;2.33;;;1.08;;
55212;SDS011;41083;52.932;6.674;2022-08-07T09:05:32;2.22;;;0.90;;
55212;SDS011;41083;52.932;6.674;2022-08-07T09:10:45;1.50;;;0.90;;
55212;SDS011;41083;52.932;6.674;2022-08-07T09:32:20;1.63;;;0.73;;
55212;SDS011;41083;52.932;6.674;2022-08-07T09:40:16;2.50;;;0.80;;
55212;SDS011;41083;52.932;6.674;2022-08-07T09:42:57;1.60;;;0.75;;
55212;SDS011;41083;52.932;6.674;2022-08-07T09:51:20;1.48;;;0.63;;
55212;SDS011;41083;52.932;6.674;2022-08-07T09:54:17;2.40;;;0.55;;
55212;SDS011;41083;52.932;6.674;2022-08-07T09:56:59;3.85;;;0.60;;
55212;SDS011;41083;52.932;6.674;2022-08-07T10:13:43;0.90;;;0.60;;
55212;SDS011;41083;52.932;6.674;2022-08-07T10:22:26;1.48;;;0.68;;
55212;SDS011;41083;52.932;6.674;2022-08-07T10:25:19;0.85;;;0.50;;
55212;SDS011;41083;52.932;6.674;2022-08-07T10:39:02;1.40;;;0.75;;
55212;SDS011;41083;52.932;6.674;2022-08-07T10:47:15;0.65;;;0.43;;
55212;SDS011;41083;52.932;6.674;2022-08-07T10:49:49;0.73;;;0.47;;
55212;SDS011;41083;52.932;6.674;2022-08-07T10:52:27;1.45;;;0.70;;
55212;SDS011;41083;52.932;6.674;2022-08-07T10:57:50;1.02;;;0.50;;
55212;SDS011;41083;52.932;6.674;2022-08-07T11:00:21;0.82;;;0.30;;
55212;SDS011;41083;52.932;6.674;2022-08-07T11:02:57;1.20;;;0.38;;
55212;SDS011;41083;52.932;6.674;2022-08-07T11:05:41;1.27;;;0.40;;
55212;SDS011;41083;52.932;6.674;2022-08-07T11:11:05;1.05;;;0.60;;
55212;SDS011;41083;52.932;6.674;2022-08-07T11:16:07;1.58;;;0.60;;
55212;SDS011;41083;52.932;6.674;2022-08-07T11:18:50;2.25;;;0.45;;
55212;SDS011;41083;52.932;6.674;2022-08-07T11:24:24;1.13;;;0.60;;
55212;SDS011;41083;52.932;6.674;2022-08-07T11:26:54;1.45;;;0.70;;
55212;SDS011;41083;52.932;6.674;2022-08-07T11:29:28;0.50;;;0.30;;
55212;SDS011;41083;52.932;6.674;2022-08-07T11:34:50;1.40;;;0.60;;
55212;SDS011;41083;52.932;6.674;2022-08-07T11:37:44;2.55;;;0.80;;
55212;SDS011;41083;52.932;6.674;2022-08-07T11:51:58;0.90;;;0.47;;
55212;SDS011;41083;52.932;6.674;2022-08-07T11:57:27;1.38;;;0.65;;
55212;SDS011;41083;52.932;6.674;2022-08-07T12:01:01;2.20;;;0.70;;
55212;SDS011;41083;52.932;6.674;2022-08-07T12:08:22;2.25;;;0.52;;
55212;SDS011;41083;52.932;6.674;2022-08-07T12:13:46;0.90;;;0.57;;
55212;SDS011;41083;52.932;6.674;2022-08-07T12:16:17;1.55;;;0.40;;
55212;SDS011;41083;52.932;6.674;2022-08-07T12:19:00;1.42;;;0.60;;
55212;SDS011;41083;52.932;6.674;2022-08-07T12:24:36;1.13;;;0.70;;
55212;SDS011;41083;52.932;6.674;2022-08-07T12:27:07;0.82;;;0.40;;
55212;SDS011;41083;52.932;6.674;2022-08-07T12:29:50;1.35;;;0.65;;
55212;SDS011;41083;52.932;6.674;2022-08-07T12:35:01;1.75;;;0.60;;
55212;SDS011;41083;52.932;6.674;2022-08-07T12:37:28;1.40;;;0.60;;
55212;SDS011;41083;52.932;6.674;2022-08-07T12:39:56;1.27;;;0.50;;
55212;SDS011;41083;52.932;6.674;2022-08-07T12:42:23;1.30;;;0.68;;
55212;SDS011;41083;52.932;6.674;2022-08-07T12:44:51;1.42;;;0.50;;
55212;SDS011;41083;52.932;6.674;2022-08-07T12:47:39;0.90;;;0.60;;
55212;SDS011;41083;52.932;6.674;2022-08-07T12:58:15;2.10;;;0.77;;
55212;SDS011;41083;52.932;6.674;2022-08-07T13:00:51;0.80;;;0.40;;
55212;SDS011;41083;52.932;6.674;2022-08-07T13:03:51;0.98;;;0.55;;
55212;SDS011;41083;52.932;6.674;2022-08-07T13:14:50;1.00;;;0.57;;
55212;SDS011;41083;52.932;6.674;2022-08-07T13:20:18;0.60;;;0.38;;
55212;SDS011;41083;52.932;6.674;2022-08-07T13:22:58;0.82;;;0.45;;
55212;SDS011;41083;52.932;6.674;2022-08-07T13:25:31;0.88;;;0.47;;
55212;SDS011;41083;52.932;6.674;2022-08-07T13:28:09;1.30;;;0.60;;
55212;SDS011;41083;52.932;6.674;2022-08-07T13:33:44;1.00;;;0.50;;
55212;SDS011;41083;52.932;6.674;2022-08-07T13:36:20;0.90;;;0.52;;
55212;SDS011;41083;52.932;6.674;2022-08-07T13:39:09;0.73;;;0.40;;
55212;SDS011;41083;52.932;6.674;2022-08-07T13:41:50;0.95;;;0.40;;
55212;SDS011;41083;52.932;6.674;2022-08-07T13:44:21;0.80;;;0.30;;
55212;SDS011;41083;52.932;6.674;2022-08-07T13:46:52;1.02;;;0.43;;
55212;SDS011;41083;52.932;6.674;2022-08-07T13:49:23;0.63;;;0.40;;
55212;SDS011;41083;52.932;6.674;2022-08-07T13:51:50;1.00;;;0.43;;
55212;SDS011;41083;52.932;6.674;2022-08-07T13:54:19;0.88;;;0.40;;
55212;SDS011;41083;52.932;6.674;2022-08-07T13:56:52;0.65;;;0.30;;
55212;SDS011;41083;52.932;6.674;2022-08-07T13:59:26;0.50;;;0.30;;
55212;SDS011;41083;52.932;6.674;2022-08-07T14:02:04;1.48;;;0.70;;
55212;SDS011;41083;52.932;6.674;2022-08-07T14:04:46;1.05;;;0.40;;
55212;SDS011;41083;52.932;6.674;2022-08-07T14:07:21;1.33;;;0.50;;
55212;SDS011;41083;52.932;6.674;2022-08-07T14:10:07;0.95;;;0.50;;
55212;SDS011;41083;52.932;6.674;2022-08-07T14:12:42;0.85;;;0.40;;
55212;SDS011;41083;52.932;6.674;2022-08-07T14:15:17;0.60;;;0.50;;
55212;SDS011;41083;52.932;6.674;2022-08-07T14:17:49;1.30;;;0.47;;
55212;SDS011;41083;52.932;6.674;2022-08-07T14:20:19;1.30;;;0.95;;
55212;SDS011;41083;52.932;6.674;2022-08-07T14:22:50;0.65;;;0.30;;
55212;SDS011;41083;52.932;6.674;2022-08-07T14:25:25;1.08;;;0.40;;
55212;SDS011;41083;52.932;6.674;2022-08-07T14:27:52;0.40;;;0.25;;
55212;SDS011;41083;52.932;6.674;2022-08-07T14:30:20;0.95;;;0.52;;
55212;SDS011;41083;52.932;6.674;2022-08-07T14:32:49;1.20;;;0.55;;
55212;SDS011;41083;52.932;6.674;2022-08-07T14:35:21;1.77;;;0.70;;
55212;SDS011;41083;52.932;6.674;2022-08-07T14:37:49;1.25;;;0.60;;
55212;SDS011;41083;52.932;6.674;2022-08-07T14:40:18;3.25;;;1.55;;
55212;SDS011;41083;52.932;6.674;2022-08-07T14:42:51;1.50;;;0.70;;
55212;SDS011;41083;52.932;6.674;2022-08-07T14:45:22;2.72;;;0.73;;
55212;SDS011;41083;52.932;6.674;2022-08-07T14:47:50;1.40;;;0.50;;
55212;SDS011;41083;52.932;6.674;2022-08-07T14:50:18;1.02;;;0.57;;
55212;SDS011;41083;52.932;6.674;2022-08-07T14:52:46;0.82;;;0.52;;
55212;SDS011;41083;52.932;6.674;2022-08-07T14:55:13;1.17;;;0.63;;
55212;SDS011;41083;52.932;6.674;2022-08-07T14:57:40;1.13;;;0.63;;
55212;SDS011;41083;52.932;6.674;2022-08-07T15:00:10;1.95;;;0.90;;
55212;SDS011;41083;52.932;6.674;2022-08-07T15:02:37;0.90;;;0.52;;
55212;SDS011;41083;52.932;6.674;2022-08-07T15:05:03;1.33;;;0.63;;
55212;SDS011;41083;52.932;6.674;2022-08-07T15:07:30;1.17;;;0.65;;
55212;SDS011;41083;52.932;6.674;2022-08-07T15:09:57;1.35;;;0.68;;
55212;SDS011;41083;52.932;6.674;2022-08-07T15:12:24;1.13;;;0.60;;
55212;SDS011;41083;52.932;6.674;2022-08-07T15:17:51;1.55;;;0.73;;
55212;SDS011;41083;52.932;6.674;2022-08-07T15:20:21;1.85;;;0.93;;
55212;SDS011;41083;52.932;6.674;2022-08-07T15:22:52;1.08;;;0.60;;
55212;SDS011;41083;52.932;6.674;2022-08-07T15:25:21;1.77;;;0.90;;
55212;SDS011;41083;52.932;6.674;2022-08-07T15:27:55;1.42;;;0.63;;
55212;SDS011;41083;52.932;6.674;2022-08-07T15:30:24;1.80;;;0.75;;
55212;SDS011;41083;52.932;6.674;2022-08-07T15:32:50;2.72;;;0.88;;
55212;SDS011;41083;52.932;6.674;2022-08-07T15:35:18;1.95;;;0.85;;
55212;SDS011;41083;52.932;6.674;2022-08-07T15:37:50;1.10;;;0.60;;
55212;SDS011;41083;52.932;6.674;2022-08-07T15:40:25;0.93;;;0.50;;
55212;SDS011;41083;52.932;6.674;2022-08-07T15:42:59;1.52;;;0.80;;
55212;SDS011;41083;52.932;6.674;2022-08-07T15:45:36;1.63;;;0.70;;
55212;SDS011;41083;52.932;6.674;2022-08-07T15:50:49;1.23;;;0.63;;
55212;SDS011;41083;52.932;6.674;2022-08-07T15:53:28;1.35;;;0.70;;
55212;SDS011;41083;52.932;6.674;2022-08-07T15:56:01;0.80;;;0.50;;
55212;SDS011;41083;52.932;6.674;2022-08-07T15:58:36;1.13;;;0.60;;
55212;SDS011;41083;52.932;6.674;2022-08-07T16:01:05;1.70;;;0.80;;
55212;SDS011;41083;52.932;6.674;2022-08-07T16:03:40;1.40;;;0.70;;
55212;SDS011;41083;52.932;6.674;2022-08-07T16:06:09;0.77;;;0.47;;
55212;SDS011;41083;52.932;6.674;2022-08-07T16:08:39;1.45;;;0.57;;
55212;SDS011;41083;52.932;6.674;2022-08-07T16:11:10;1.45;;;0.80;;
55212;SDS011;41083;52.932;6.674;2022-08-07T16:13:49;1.05;;;0.55;;
55212;SDS011;41083;52.932;6.674;2022-08-07T16:19:02;2.30;;;0.65;;
55212;SDS011;41083;52.932;6.674;2022-08-07T16:22:01;1.83;;;0.77;;
55212;SDS011;41083;52.932;6.674;2022-08-07T16:24:40;2.10;;;0.90;;
55212;SDS011;41083;52.932;6.674;2022-08-07T16:30:05;1.67;;;0.93;;
55212;SDS011;41083;52.932;6.674;2022-08-07T16:32:42;1.60;;;0.90;;
55212;SDS011;41083;52.932;6.674;2022-08-07T16:41:10;2.80;;;0.90;;
55212;SDS011;41083;52.932;6.674;2022-08-07T16:44:10;1.27;;;0.70;;
55212;SDS011;41083;52.932;6.674;2022-08-07T16:46:54;2.05;;;0.70;;
55212;SDS011;41083;52.932;6.674;2022-08-07T16:49:31;1.05;;;0.70;;
55212;SDS011;41083;52.932;6.674;2022-08-07T16:52:19;1.27;;;0.73;;
55212;SDS011;41083;52.932;6.674;2022-08-07T16:54:57;2.05;;;1.15;;
55212;SDS011;41083;52.932;6.674;2022-08-07T17:00:16;1.33;;;0.60;;
55212;SDS011;41083;52.932;6.674;2022-08-07T17:08:32;2.30;;;0.90;;
55212;SDS011;41083;52.932;6.674;2022-08-07T17:11:00;2.10;;;1.10;;
55212;SDS011;41083;52.932;6.674;2022-08-07T17:13:38;1.13;;;0.60;;
55212;SDS011;41083;52.932;6.674;2022-08-07T17:16:16;0.90;;;0.50;;
55212;SDS011;41083;52.932;6.674;2022-08-07T17:18:51;1.73;;;0.85;;
55212;SDS011;41083;52.932;6.674;2022-08-07T17:21:44;1.40;;;0.70;;
55212;SDS011;41083;52.932;6.674;2022-08-07T17:24:22;1.30;;;0.63;;
55212;SDS011;41083;52.932;6.674;2022-08-07T17:27:16;1.75;;;0.77;;
55212;SDS011;41083;52.932;6.674;2022-08-07T17:30:01;1.58;;;0.80;;
55212;SDS011;41083;52.932;6.674;2022-08-07T17:38:16;1.60;;;0.90;;
55212;SDS011;41083;52.932;6.674;2022-08-07T17:41:01;1.30;;;0.75;;
55212;SDS011;41083;52.932;6.674;2022-08-07T17:43:48;1.05;;;0.57;;
55212;SDS011;41083;52.932;6.674;2022-08-07T17:46:22;1.70;;;0.80;;
55212;SDS011;41083;52.932;6.674;2022-08-07T17:49:00;1.10;;;0.70;;
55212;SDS011;41083;52.932;6.674;2022-08-07T17:51:37;1.70;;;0.70;;
55212;SDS011;41083;52.932;6.674;2022-08-07T17:59:53;1.45;;;0.70;;
55212;SDS011;41083;52.932;6.674;2022-08-07T18:02:28;1.40;;;0.75;;
55212;SDS011;41083;52.932;6.674;2022-08-07T18:05:09;2.28;;;0.98;;
55212;SDS011;41083;52.932;6.674;2022-08-07T18:08:12;2.45;;;1.17;;
55212;SDS011;41083;52.932;6.674;2022-08-07T18:13:17;2.20;;;0.93;;
55212;SDS011;41083;52.932;6.674;2022-08-07T18:18:48;1.30;;;0.80;;
55212;SDS011;41083;52.932;6.674;2022-08-07T18:35:31;4.05;;;1.33;;
55212;SDS011;41083;52.932;6.674;2022-08-07T18:38:12;2.08;;;1.20;;
55212;SDS011;41083;52.932;6.674;2022-08-07T18:40:56;2.53;;;1.42;;
55212;SDS011;41083;52.932;6.674;2022-08-07T18:46:54;2.17;;;1.20;;
55212;SDS011;41083;52.932;6.674;2022-08-07T18:52:51;1.90;;;1.00;;
55212;SDS011;41083;52.932;6.674;2022-08-07T19:06:20;2.13;;;1.17;;
55212;SDS011;41083;52.932;6.674;2022-08-07T19:09:04;2.13;;;1.30;;
55212;SDS011;41083;52.932;6.674;2022-08-07T19:11:39;1.75;;;1.00;;